Time;durP1;ratioP1;P1;durP2;ratioP2;P2;SDS_P1;SDS_P2;PMS_P1;PMS_P2;Temp;Humidity;BMP_temperature;BMP_pressure;BME280_temperature;BME280_humidity;BME280_pressure;Samples;Min_cycle;Max_cycle;Signal;HPM_P1;HPM_P2
2022/12/21 00:01:10;;;;;;;;;;;8.70;99.90;;;;;;5006725;28;20000;-67
2022/12/21 00:03:36;;;;;;;;;;;8.80;99.90;;;;;;5007914;28;20401;-66
2022/12/21 00:06:03;;;;;;;;;;;8.80;99.90;;;;;;5008878;28;19929;-66
2022/12/21 00:08:30;;;;;;;;;;;8.70;99.90;;;;;;5003940;28;20328;-67
2022/12/21 00:10:59;;;;;;;;;;;8.80;99.90;;;;;;5009445;28;19949;-67
2022/12/21 00:13:25;;;;;;;;;;;8.80;99.90;;;;;;5012021;28;19910;-67
2022/12/21 00:15:57;;;;;;;;;;;8.70;99.90;;;;;;5012013;28;19922;-68
2022/12/21 00:18:23;;;;;;;;;;;8.70;99.90;;;;;;5017228;28;21659;-68
2022/12/21 00:21:03;;;;;;;;;;;8.70;99.90;;;;;;5017055;28;19917;-64
2022/12/21 00:23:29;;;;;;;;;;;8.60;99.90;;;;;;5000989;28;19914;-67
2022/12/21 00:25:55;;;;;;;;;;;8.60;99.90;;;;;;5006292;28;19928;-64
2022/12/21 00:28:21;;;;;;;;;;;8.70;99.90;;;;;;5009597;28;19914;-66
2022/12/21 00:30:47;;;;;;;;;;;8.70;99.90;;;;;;5011008;28;19914;-66
2022/12/21 00:33:12;;;;;;;;;;;8.70;99.90;;;;;;5018299;28;19913;-66
2022/12/21 00:35:38;;;;;;;;;;;8.60;99.90;;;;;;5017539;28;19938;-66
2022/12/21 00:38:03;;;;;;;;;;;8.60;99.90;;;;;;5014269;28;19914;-66
2022/12/21 00:40:29;;;;;;;;;;;8.70;99.90;;;;;;5014470;28;19960;-66
2022/12/21 00:42:55;;;;;;;;;;;8.60;99.90;;;;;;5009001;28;20381;-67
2022/12/21 00:45:20;;;;;;;;;;;8.70;99.90;;;;;;5018871;28;20348;-67
2022/12/21 00:47:47;;;;;;;;;;;8.70;99.90;;;;;;5020926;28;19960;-66
2022/12/21 00:50:13;;;;;;;;;;;8.70;99.90;;;;;;5020895;28;19948;-66
2022/12/21 00:52:38;;;;;;;;;;;8.80;99.90;;;;;;5029221;28;19914;-67
2022/12/21 00:55:04;;;;;;;;;;;8.70;99.90;;;;;;5017540;28;19921;-66
2022/12/21 00:57:30;;;;;;;;;;;8.70;99.90;;;;;;5019072;28;19922;-66
2022/12/21 00:59:55;;;;;;;;;;;8.70;99.90;;;;;;5003993;28;19914;-67
2022/12/21 01:02:21;;;;;;;;;;;8.80;99.90;;;;;;5008771;28;19928;-66
2022/12/21 01:04:46;;;;;;;;;;;8.70;99.90;;;;;;5010168;28;20016;-66
2022/12/21 01:07:12;;;;;;;;;;;8.70;99.90;;;;;;5013318;28;19922;-66
2022/12/21 01:09:38;;;;;;;;;;;8.70;99.90;;;;;;5009140;28;20020;-65
2022/12/21 01:12:03;;;;;;;;;;;8.70;99.90;;;;;;5011646;28;19968;-66
2022/12/21 01:14:29;;;;;;;;;;;8.70;99.90;;;;;;5015275;28;19913;-65
2022/12/21 01:16:54;;;;;;;;;;;8.70;99.90;;;;;;5006137;28;19975;-66
2022/12/21 01:19:20;;;;;;;;;;;8.70;99.90;;;;;;5007476;28;19918;-67
2022/12/21 01:21:46;;;;;;;;;;;8.70;99.90;;;;;;5013413;28;19914;-67
2022/12/21 01:24:12;;;;;;;;;;;8.70;99.90;;;;;;5007820;28;20224;-66
2022/12/21 01:26:38;;;;;;;;;;;8.70;99.90;;;;;;5005003;28;20311;-67
2022/12/21 01:29:04;;;;;;;;;;;8.70;99.90;;;;;;5006808;28;19913;-66
2022/12/21 01:31:29;;;;;;;;;;;8.70;99.90;;;;;;5010818;28;19921;-67
2022/12/21 01:33:55;;;;;;;;;;;8.70;99.90;;;;;;5020172;28;19961;-66
2022/12/21 01:36:22;;;;;;;;;;;8.70;99.90;;;;;;5013124;28;19967;-66
2022/12/21 01:38:48;;;;;;;;;;;8.70;99.90;;;;;;5015375;28;19914;-66
2022/12/21 01:41:16;;;;;;;;;;;8.70;99.90;;;;;;5024847;28;19920;-66
2022/12/21 01:43:41;;;;;;;;;;;8.60;99.90;;;;;;5020752;28;19963;-66
2022/12/21 01:46:12;;;;;;;;;;;8.60;99.90;;;;;;5023271;28;19964;-66
2022/12/21 01:48:41;;;;;;;;;;;8.60;99.90;;;;;;5007537;28;19936;-66
2022/12/21 01:51:06;;;;;;;;;;;8.60;99.90;;;;;;5012463;28;19975;-66
2022/12/21 01:53:34;;;;;;;;;;;8.70;99.90;;;;;;5018828;28;19921;-66
2022/12/21 01:56:01;;;;;;;;;;;8.70;99.90;;;;;;5019012;28;19913;-67
2022/12/21 01:58:28;;;;;;;;;;;8.70;99.90;;;;;;5000451;28;19990;-67
2022/12/21 02:00:55;;;;;;;;;;;8.70;99.90;;;;;;5002344;28;20010;-66
2022/12/21 02:03:23;;;;;;;;;;;8.70;99.90;;;;;;5007468;28;19939;-66
2022/12/21 02:05:52;;;;;;;;;;;8.70;99.90;;;;;;5007622;28;19983;-66
2022/12/21 02:08:18;;;;;;;;;;;8.70;99.90;;;;;;5001882;28;20381;-65
2022/12/21 02:10:44;;;;;;;;;;;8.70;99.90;;;;;;5011777;28;19919;-65
2022/12/21 02:13:11;;;;;;;;;;;8.60;99.90;;;;;;5009164;28;19920;-67
2022/12/21 02:15:45;;;;;;;;;;;8.60;99.90;;;;;;5000296;28;19917;-66
2022/12/21 02:18:27;;;;;;;;;;;8.60;99.90;;;;;;5001125;28;19941;-65
2022/12/21 02:21:12;;;;;;;;;;;8.60;99.90;;;;;;5010115;28;19921;-65
2022/12/21 02:24:04;;;;;;;;;;;8.60;99.90;;;;;;4998198;28;19913;-66
2022/12/21 02:26:35;;;;;;;;;;;8.60;99.90;;;;;;4998509;28;19917;-66
2022/12/21 02:29:19;;;;;;;;;;;8.60;99.90;;;;;;4994427;28;20273;-66
2022/12/21 02:32:08;;;;;;;;;;;8.60;99.90;;;;;;5002605;28;19944;-66
2022/12/21 02:34:38;;;;;;;;;;;8.60;99.90;;;;;;5007110;28;20332;-67
2022/12/21 02:37:13;;;;;;;;;;;8.70;99.90;;;;;;5014007;28;19913;-67
2022/12/21 02:39:45;;;;;;;;;;;8.80;99.90;;;;;;5013341;28;19940;-66
2022/12/21 02:44:12;;;;;;;;;;;8.70;99.90;;;;;;5010866;28;19913;-66
2022/12/21 02:44:57;;;;;;;;;;;8.70;99.90;;;;;;5007148;28;19921;-67
2022/12/21 02:47:32;;;;;;;;;;;8.70;99.90;;;;;;5009660;28;19917;-66
2022/12/21 02:50:02;;;;;;;;;;;8.70;99.90;;;;;;5021011;28;19952;-67
2022/12/21 02:52:28;;;;;;;;;;;8.70;99.90;;;;;;5009339;28;20447;-67
2022/12/21 02:54:57;;;;;;;;;;;8.70;99.90;;;;;;5016998;28;20008;-66
2022/12/21 02:57:33;;;;;;;;;;;8.70;99.90;;;;;;5016755;28;19913;-67
2022/12/21 03:00:00;;;;;;;;;;;8.80;99.90;;;;;;5007443;28;19913;-67
2022/12/21 03:02:25;;;;;;;;;;;8.70;99.90;;;;;;5009909;28;19913;-67
2022/12/21 03:04:54;;;;;;;;;;;8.70;99.90;;;;;;5016816;28;20419;-67
2022/12/21 03:07:31;;;;;;;;;;;8.70;99.90;;;;;;5016152;28;19914;-66
2022/12/21 03:10:03;;;;;;;;;;;8.80;99.90;;;;;;5009320;28;20015;-66
2022/12/21 03:12:34;;;;;;;;;;;8.90;99.90;;;;;;5013076;28;19922;-66
2022/12/21 03:15:02;;;;;;;;;;;8.90;99.90;;;;;;5006500;28;19913;-67
2022/12/21 03:17:31;;;;;;;;;;;8.80;99.90;;;;;;5019923;28;19917;-66
2022/12/21 03:20:08;;;;;;;;;;;8.80;99.90;;;;;;5008884;28;19917;-66
2022/12/21 03:22:34;;;;;;;;;;;8.80;99.90;;;;;;5010279;28;19921;-67
2022/12/21 03:25:04;;;;;;;;;;;8.80;99.90;;;;;;5008758;28;19925;-66
2022/12/21 03:27:32;;;;;;;;;;;8.80;99.90;;;;;;5015050;28;19921;-66
2022/12/21 03:30:00;;;;;;;;;;;8.70;99.90;;;;;;5007742;28;19920;-65
2022/12/21 03:32:52;;;;;;;;;;;8.80;99.90;;;;;;5003978;28;20359;-66
2022/12/21 03:35:37;;;;;;;;;;;8.70;99.90;;;;;;5014669;28;20411;-67
2022/12/21 03:38:05;;;;;;;;;;;8.60;99.90;;;;;;5013115;28;19913;-66
2022/12/21 03:40:33;;;;;;;;;;;8.70;99.90;;;;;;5010498;28;19918;-66
2022/12/21 03:43:00;;;;;;;;;;;8.60;99.90;;;;;;5020149;28;19922;-66
2022/12/21 03:45:33;;;;;;;;;;;8.70;99.90;;;;;;5016615;28;19940;-66
2022/12/21 03:48:10;;;;;;;;;;;8.70;99.90;;;;;;5004269;28;19913;-66
2022/12/21 03:50:39;;;;;;;;;;;8.70;99.90;;;;;;5012708;28;19920;-66
2022/12/21 03:53:16;;;;;;;;;;;8.70;99.90;;;;;;5009870;28;19921;-67
2022/12/21 03:55:43;;;;;;;;;;;8.70;99.90;;;;;;5014151;28;19921;-65
2022/12/21 03:58:09;;;;;;;;;;;8.70;99.90;;;;;;5019652;28;19960;-66
2022/12/21 04:00:51;;;;;;;;;;;8.70;99.90;;;;;;4998674;28;20652;-66
2022/12/21 04:03:25;;;;;;;;;;;8.70;99.90;;;;;;5010624;28;19961;-67
2022/12/21 04:05:57;;;;;;;;;;;8.60;99.90;;;;;;5014751;28;19965;-66
2022/12/21 04:08:23;;;;;;;;;;;8.70;99.90;;;;;;5011777;28;19940;-67
2022/12/21 04:10:48;;;;;;;;;;;8.60;99.90;;;;;;4991006;28;19988;-67
2022/12/21 04:13:14;;;;;;;;;;;8.60;99.90;;;;;;4997168;28;20020;-67
2022/12/21 04:21:08;;;;;;;;;;;8.60;99.90;;;;;;5006736;28;19947;-67
2022/12/21 04:29:02;;;;;;;;;;;8.60;99.90;;;;;;5006710;28;20341;-66
2022/12/21 04:31:27;;;;;;;;;;;8.60;99.90;;;;;;5012928;28;19913;-66
2022/12/21 04:33:53;;;;;;;;;;;8.60;99.90;;;;;;5001254;28;19922;-66
2022/12/21 04:39:03;;;;;;;;;;;8.70;99.90;;;;;;5015765;28;20308;-66
2022/12/21 04:41:28;;;;;;;;;;;8.70;99.90;;;;;;4984947;28;19914;-66
2022/12/21 04:43:54;;;;;;;;;;;8.70;99.90;;;;;;5007498;28;19968;-66
2022/12/21 04:46:19;;;;;;;;;;;8.70;99.90;;;;;;5017550;28;19917;-65
2022/12/21 04:48:46;;;;;;;;;;;8.70;99.90;;;;;;5008670;28;19920;-66
2022/12/21 04:51:11;;;;;;;;;;;8.80;99.90;;;;;;5019129;28;19913;-66
2022/12/21 04:53:37;;;;;;;;;;;8.80;99.90;;;;;;5021554;28;19989;-65
2022/12/21 04:56:03;;;;;;;;;;;8.70;99.90;;;;;;5010626;28;19913;-66
2022/12/21 04:58:29;;;;;;;;;;;8.80;99.90;;;;;;5006702;28;19914;-68
2022/12/21 05:00:54;;;;;;;;;;;8.70;99.90;;;;;;5010398;28;19978;-67
2022/12/21 05:03:20;;;;;;;;;;;8.70;99.90;;;;;;5000219;28;21238;-67
2022/12/21 05:05:46;;;;;;;;;;;8.80;99.90;;;;;;5000381;28;19918;-66
2022/12/21 05:08:12;;;;;;;;;;;8.80;99.90;;;;;;4996564;28;19913;-67
2022/12/21 05:10:38;;;;;;;;;;;8.70;99.90;;;;;;4996787;28;19972;-67
2022/12/21 05:13:04;;;;;;;;;;;8.70;99.90;;;;;;5008536;28;19914;-67
2022/12/21 05:15:30;;;;;;;;;;;8.70;99.90;;;;;;5010027;28;19928;-66
2022/12/21 05:17:56;;;;;;;;;;;8.60;99.90;;;;;;5002808;28;19917;-66
2022/12/21 05:20:22;;;;;;;;;;;8.60;99.90;;;;;;5007362;28;19921;-65
2022/12/21 05:22:49;;;;;;;;;;;8.60;99.90;;;;;;5004987;28;20210;-67
2022/12/21 05:25:15;;;;;;;;;;;8.70;99.90;;;;;;5007170;28;20020;-66
2022/12/21 05:27:41;;;;;;;;;;;8.60;99.90;;;;;;5007809;28;19917;-66
2022/12/21 05:30:06;;;;;;;;;;;8.60;99.90;;;;;;5013544;28;19960;-66
2022/12/21 05:32:32;;;;;;;;;;;8.60;99.90;;;;;;5003011;28;19959;-66
2022/12/21 05:34:58;;;;;;;;;;;8.50;99.90;;;;;;5004345;28;20237;-67
2022/12/21 05:37:23;;;;;;;;;;;8.50;99.90;;;;;;5002660;28;19917;-67
2022/12/21 05:39:49;;;;;;;;;;;8.60;99.90;;;;;;4996955;28;20096;-68
2022/12/21 05:42:14;;;;;;;;;;;8.60;99.90;;;;;;5004973;28;20309;-67
2022/12/21 05:44:40;;;;;;;;;;;8.60;99.90;;;;;;5005430;28;19917;-66
2022/12/21 05:47:05;;;;;;;;;;;8.60;99.90;;;;;;4997360;28;19924;-66
2022/12/21 05:49:31;;;;;;;;;;;8.50;99.90;;;;;;4999637;28;20016;-66
2022/12/21 05:51:56;;;;;;;;;;;8.50;99.90;;;;;;5008228;28;19921;-68
2022/12/21 05:54:22;;;;;;;;;;;8.50;99.90;;;;;;4991445;28;19914;-67
2022/12/21 05:56:48;;;;;;;;;;;8.50;99.90;;;;;;4999628;28;20161;-67
2022/12/21 05:59:13;;;;;;;;;;;8.50;99.90;;;;;;5004644;28;19913;-66
2022/12/21 06:01:39;;;;;;;;;;;8.60;99.90;;;;;;5005877;28;20022;-67
2022/12/21 06:04:04;;;;;;;;;;;8.60;99.90;;;;;;4990291;28;19921;-69
2022/12/21 06:06:30;;;;;;;;;;;8.60;99.90;;;;;;4989274;28;19921;-67
2022/12/21 06:08:55;;;;;;;;;;;8.60;99.90;;;;;;5003041;28;19918;-67
2022/12/21 06:11:23;;;;;;;;;;;8.60;99.90;;;;;;5006707;28;20052;-65
2022/12/21 06:13:49;;;;;;;;;;;8.70;99.90;;;;;;5011113;28;20421;-67
2022/12/21 06:16:19;;;;;;;;;;;8.60;99.90;;;;;;5008415;28;19961;-66
2022/12/21 06:18:45;;;;;;;;;;;8.60;99.90;;;;;;4994959;28;19920;-66
2022/12/21 06:21:11;;;;;;;;;;;8.60;99.90;;;;;;5012712;28;19922;-66
2022/12/21 06:23:38;;;;;;;;;;;8.60;99.90;;;;;;5000760;28;20377;-66
2022/12/21 06:26:04;;;;;;;;;;;8.60;99.90;;;;;;5006928;28;20400;-66
2022/12/21 06:28:30;;;;;;;;;;;8.60;99.90;;;;;;5011048;28;19981;-66
2022/12/21 06:31:00;;;;;;;;;;;8.50;99.90;;;;;;5002004;28;19920;-66
2022/12/21 06:33:26;;;;;;;;;;;8.50;99.90;;;;;;5011315;28;20000;-66
2022/12/21 06:35:55;;;;;;;;;;;8.50;99.90;;;;;;5007015;28;20357;-66
2022/12/21 06:38:21;;;;;;;;;;;8.50;99.90;;;;;;5009160;28;19913;-66
2022/12/21 06:40:52;;;;;;;;;;;8.60;99.90;;;;;;5005228;28;19981;-67
2022/12/21 06:43:17;;;;;;;;;;;8.60;99.90;;;;;;5005783;28;20001;-66
2022/12/21 06:45:43;;;;;;;;;;;8.60;99.90;;;;;;5009026;28;20037;-65
2022/12/21 06:48:08;;;;;;;;;;;8.60;99.90;;;;;;5003933;28;19939;-66
2022/12/21 06:50:35;;;;;;;;;;;8.60;99.90;;;;;;5005037;28;19913;-66
2022/12/21 06:53:00;;;;;;;;;;;8.60;99.90;;;;;;5008648;28;20000;-66
2022/12/21 06:55:26;;;;;;;;;;;8.60;99.90;;;;;;5010408;28;20008;-66
2022/12/21 06:57:52;;;;;;;;;;;8.60;99.90;;;;;;4986720;28;20905;-66
2022/12/21 07:00:17;;;;;;;;;;;8.70;99.90;;;;;;4988769;28;19920;-66
2022/12/21 07:02:43;;;;;;;;;;;8.70;99.90;;;;;;5003885;28;19926;-67
2022/12/21 07:05:08;;;;;;;;;;;8.70;99.90;;;;;;5007601;28;19972;-66
2022/12/21 07:07:34;;;;;;;;;;;8.70;99.90;;;;;;5010133;28;19957;-66
2022/12/21 07:10:00;;;;;;;;;;;8.70;99.90;;;;;;4995163;28;20042;-66
2022/12/21 07:12:25;;;;;;;;;;;8.60;99.90;;;;;;5003966;28;19922;-67
2022/12/21 07:14:51;;;;;;;;;;;8.70;99.90;;;;;;4999240;28;19922;-67
2022/12/21 07:17:16;;;;;;;;;;;8.80;99.90;;;;;;5002062;28;19918;-66
2022/12/21 07:19:42;;;;;;;;;;;8.70;99.90;;;;;;4999145;28;20015;-66
2022/12/21 07:22:07;;;;;;;;;;;8.80;99.90;;;;;;5007701;28;20265;-65
2022/12/21 07:24:33;;;;;;;;;;;8.80;99.90;;;;;;5005974;28;20015;-64
2022/12/21 07:26:59;;;;;;;;;;;8.80;99.90;;;;;;5018489;28;19921;-65
2022/12/21 07:29:24;;;;;;;;;;;8.80;99.90;;;;;;5005767;28;19928;-65
2022/12/21 07:31:51;;;;;;;;;;;8.80;99.90;;;;;;5006002;28;20000;-66
2022/12/21 07:34:17;;;;;;;;;;;8.80;99.90;;;;;;5006787;28;20286;-67
2022/12/21 07:36:42;;;;;;;;;;;8.90;99.90;;;;;;4992286;28;19921;-66
2022/12/21 07:39:08;;;;;;;;;;;8.90;99.90;;;;;;5007826;28;19913;-67
2022/12/21 07:41:33;;;;;;;;;;;9.10;99.90;;;;;;5005937;28;20012;-66
2022/12/21 07:43:59;;;;;;;;;;;9.00;99.90;;;;;;4988885;28;19914;-67
2022/12/21 07:46:25;;;;;;;;;;;9.00;99.90;;;;;;5003199;28;20035;-67
2022/12/21 07:48:50;;;;;;;;;;;9.00;99.90;;;;;;5008718;28;20004;-66
2022/12/21 07:51:16;;;;;;;;;;;9.20;99.90;;;;;;5013303;28;19917;-65
2022/12/21 07:53:42;;;;;;;;;;;9.10;99.90;;;;;;5008518;28;19972;-64
2022/12/21 07:56:10;;;;;;;;;;;9.10;99.90;;;;;;4993484;28;19917;-62
2022/12/21 07:58:36;;;;;;;;;;;9.10;99.90;;;;;;5001138;28;19918;-64
2022/12/21 08:01:03;;;;;;;;;;;9.10;99.90;;;;;;4986094;28;19932;-64
2022/12/21 08:03:29;;;;;;;;;;;9.10;99.90;;;;;;4987686;28;19974;-65
2022/12/21 08:05:55;;;;;;;;;;;9.10;99.90;;;;;;5007483;28;19918;-64
2022/12/21 08:08:20;;;;;;;;;;;9.10;99.90;;;;;;4999113;28;20284;-66
2022/12/21 08:10:46;;;;;;;;;;;9.10;99.90;;;;;;5000131;28;19958;-63
2022/12/21 08:13:11;;;;;;;;;;;9.20;99.90;;;;;;4997441;28;19917;-64
2022/12/21 08:15:37;;;;;;;;;;;9.30;99.90;;;;;;5013201;28;19921;-64
2022/12/21 08:18:03;;;;;;;;;;;9.30;99.90;;;;;;4994103;28;19914;-65
2022/12/21 08:20:29;;;;;;;;;;;9.30;99.90;;;;;;4998671;28;19959;-65
2022/12/21 08:22:54;;;;;;;;;;;9.30;99.90;;;;;;4994176;28;19925;-63
2022/12/21 08:25:20;;;;;;;;;;;9.30;99.90;;;;;;4999012;28;19917;-64
2022/12/21 08:27:46;;;;;;;;;;;9.40;99.90;;;;;;4999437;28;19918;-64
2022/12/21 08:30:12;;;;;;;;;;;9.40;99.90;;;;;;4999805;28;19932;-64
2022/12/21 08:32:37;;;;;;;;;;;9.40;99.90;;;;;;5000690;28;20308;-64
2022/12/21 08:35:03;;;;;;;;;;;9.40;99.90;;;;;;5002482;28;19961;-65
2022/12/21 08:37:29;;;;;;;;;;;9.40;99.90;;;;;;5007609;28;20003;-64
2022/12/21 08:39:54;;;;;;;;;;;9.40;99.90;;;;;;4998781;28;19997;-65
2022/12/21 08:42:20;;;;;;;;;;;9.50;99.90;;;;;;5000431;28;19920;-64
2022/12/21 08:44:47;;;;;;;;;;;9.50;99.90;;;;;;4994670;28;20024;-64
2022/12/21 08:47:13;;;;;;;;;;;9.60;99.90;;;;;;5000832;28;20054;-65
2022/12/21 08:49:39;;;;;;;;;;;9.70;99.90;;;;;;5005992;28;20465;-65
2022/12/21 08:52:05;;;;;;;;;;;9.80;99.90;;;;;;5001726;28;19913;-64
2022/12/21 08:54:31;;;;;;;;;;;9.80;99.90;;;;;;5009374;28;19914;-65
2022/12/21 08:56:56;;;;;;;;;;;9.90;99.90;;;;;;5000870;28;19913;-64
2022/12/21 08:59:22;;;;;;;;;;;9.70;99.90;;;;;;5007314;28;20469;-63
2022/12/21 09:01:47;;;;;;;;;;;9.70;99.90;;;;;;5007257;28;19976;-64
2022/12/21 09:04:13;;;;;;;;;;;9.70;99.90;;;;;;5006460;28;19920;-63
2022/12/21 09:06:39;;;;;;;;;;;9.60;99.90;;;;;;5003740;28;19932;-63
2022/12/21 09:09:05;;;;;;;;;;;9.50;99.90;;;;;;5013447;28;20012;-64
2022/12/21 09:11:30;;;;;;;;;;;9.50;99.90;;;;;;5007868;28;19913;-64
2022/12/21 09:13:56;;;;;;;;;;;9.50;99.90;;;;;;4999433;28;20009;-64
2022/12/21 09:16:23;;;;;;;;;;;9.50;99.90;;;;;;5008890;28;19921;-65
2022/12/21 09:18:49;;;;;;;;;;;9.50;99.90;;;;;;4990920;28;19910;-64
2022/12/21 09:21:16;;;;;;;;;;;9.60;99.90;;;;;;5011056;28;19922;-65
2022/12/21 09:23:42;;;;;;;;;;;9.60;99.90;;;;;;5013363;28;19913;-67
2022/12/21 09:26:08;;;;;;;;;;;9.60;99.90;;;;;;5017778;28;19925;-65
2022/12/21 09:28:34;;;;;;;;;;;9.60;99.90;;;;;;5007975;28;20257;-65
2022/12/21 09:31:20;;;;;;;;;;;9.60;99.90;;;;;;5016108;28;19924;-65
2022/12/21 09:33:45;;;;;;;;;;;9.70;99.90;;;;;;5012101;28;19956;-65
2022/12/21 09:36:11;;;;;;;;;;;9.80;99.90;;;;;;5014700;28;20277;-62
2022/12/21 09:38:37;;;;;;;;;;;9.70;99.90;;;;;;4994243;28;19960;-61
2022/12/21 09:41:02;;;;;;;;;;;9.70;99.90;;;;;;5011953;28;19968;-65
2022/12/21 09:43:46;;;;;;;;;;;9.80;99.90;;;;;;5007600;28;20056;-64
2022/12/21 09:46:13;;;;;;;;;;;9.80;99.90;;;;;;5007083;28;20361;-64
2022/12/21 09:48:42;;;;;;;;;;;9.90;99.90;;;;;;4999223;28;20323;-66
2022/12/21 09:51:15;;;;;;;;;;;9.90;99.90;;;;;;4997342;28;20004;-64
2022/12/21 09:54:00;;;;;;;;;;;10.00;99.90;;;;;;5014701;28;19918;-64
2022/12/21 09:56:28;;;;;;;;;;;10.00;99.90;;;;;;5001421;28;19917;-65
2022/12/21 09:58:54;;;;;;;;;;;10.10;99.90;;;;;;5014669;28;19913;-64
2022/12/21 10:01:28;;;;;;;;;;;10.00;99.90;;;;;;5012182;28;19910;-66
2022/12/21 10:04:06;;;;;;;;;;;10.00;99.90;;;;;;5016203;28;19914;-65
2022/12/21 10:06:34;;;;;;;;;;;10.00;99.90;;;;;;5010110;28;19914;-66
2022/12/21 10:09:09;;;;;;;;;;;10.10;99.90;;;;;;5011339;28;19913;-63
2022/12/21 10:11:45;;;;;;;;;;;10.10;99.90;;;;;;5011923;28;19932;-62
2022/12/21 10:14:17;;;;;;;;;;;10.10;99.90;;;;;;5008924;28;19914;-64
2022/12/21 10:16:47;;;;;;;;;;;10.20;99.90;;;;;;5009721;28;19929;-62
2022/12/21 10:19:21;;;;;;;;;;;10.20;99.90;;;;;;5015069;28;19917;-63
2022/12/21 10:21:58;;;;;;;;;;;10.10;99.90;;;;;;5011578;28;20300;-62
2022/12/21 10:24:26;;;;;;;;;;;10.20;99.90;;;;;;4993623;28;19914;-64
2022/12/21 10:26:54;;;;;;;;;;;10.20;99.90;;;;;;4996370;28;19917;-63
2022/12/21 10:29:21;;;;;;;;;;;10.20;99.90;;;;;;4994880;28;19916;-63
2022/12/21 10:31:47;;;;;;;;;;;10.10;99.90;;;;;;5008632;28;19964;-63
2022/12/21 10:34:15;;;;;;;;;;;10.00;99.90;;;;;;4989277;28;19921;-62
2022/12/21 10:36:41;;;;;;;;;;;10.00;99.90;;;;;;5010138;28;19917;-63
2022/12/21 10:39:09;;;;;;;;;;;9.90;99.90;;;;;;4992627;28;20021;-63
2022/12/21 10:41:37;;;;;;;;;;;10.00;99.90;;;;;;5007883;28;19913;-63
2022/12/21 10:44:02;;;;;;;;;;;9.90;99.90;;;;;;5009450;28;20008;-64
2022/12/21 10:46:33;;;;;;;;;;;9.90;99.90;;;;;;5009045;28;20392;-64
2022/12/21 10:49:17;;;;;;;;;;;9.90;99.90;;;;;;5005837;28;19972;-64
2022/12/21 10:51:42;;;;;;;;;;;10.00;99.90;;;;;;5009424;28;19918;-62
2022/12/21 10:54:09;;;;;;;;;;;10.00;99.90;;;;;;5008601;28;19916;-61
2022/12/21 10:56:43;;;;;;;;;;;10.00;99.90;;;;;;5010578;28;20528;-62
2022/12/21 10:59:12;;;;;;;;;;;10.00;99.90;;;;;;5011638;28;20000;-61
2022/12/21 11:01:37;;;;;;;;;;;10.10;99.90;;;;;;5010998;28;20219;-68
2022/12/21 11:04:14;;;;;;;;;;;10.10;99.90;;;;;;5010361;28;19917;-63
2022/12/21 11:06:53;;;;;;;;;;;10.20;99.90;;;;;;5000756;28;20361;-64
2022/12/21 11:09:45;;;;;;;;;;;10.10;99.90;;;;;;5011452;28;19913;-64
2022/12/21 11:12:29;;;;;;;;;;;10.20;99.90;;;;;;5002940;28;19937;-64
2022/12/21 11:14:55;;;;;;;;;;;10.10;99.90;;;;;;5012281;28;19909;-63
2022/12/21 11:17:31;;;;;;;;;;;10.10;99.90;;;;;;5011266;28;19914;-62
2022/12/21 11:20:04;;;;;;;;;;;10.10;99.90;;;;;;5013230;28;19924;-65
2022/12/21 11:22:31;;;;;;;;;;;10.10;99.90;;;;;;5014846;28;19921;-64
2022/12/21 11:24:58;;;;;;;;;;;10.00;99.90;;;;;;5011748;28;20309;-65
2022/12/21 11:27:28;;;;;;;;;;;10.00;99.90;;;;;;5017718;28;19909;-60
2022/12/21 11:30:00;;;;;;;;;;;10.00;99.90;;;;;;5012556;28;19914;-63
2022/12/21 11:32:27;;;;;;;;;;;10.00;99.90;;;;;;5015344;28;19909;-62
2022/12/21 11:34:57;;;;;;;;;;;10.00;99.90;;;;;;5014931;28;19913;-65
2022/12/21 11:37:26;;;;;;;;;;;10.00;99.90;;;;;;5014620;28;19909;-65
2022/12/21 11:39:54;;;;;;;;;;;9.90;99.90;;;;;;5009748;28;19952;-65
2022/12/21 11:42:21;;;;;;;;;;;9.90;99.90;;;;;;5016290;28;19910;-63
2022/12/21 11:44:51;;;;;;;;;;;9.90;99.90;;;;;;5007547;28;19925;-62
2022/12/21 11:47:40;;;;;;;;;;;9.80;99.90;;;;;;5004977;28;20314;-63
2022/12/21 11:50:05;;;;;;;;;;;9.90;99.90;;;;;;4999376;28;19951;-65
2022/12/21 11:52:47;;;;;;;;;;;9.90;99.90;;;;;;5006972;28;19964;-62
2022/12/21 11:55:19;;;;;;;;;;;9.90;99.90;;;;;;4990023;28;20391;-64
2022/12/21 11:57:47;;;;;;;;;;;9.90;99.90;;;;;;4991614;28;19968;-60
2022/12/21 12:00:14;;;;;;;;;;;9.80;99.90;;;;;;5003726;28;19922;-61
2022/12/21 12:02:58;;;;;;;;;;;9.80;99.90;;;;;;5002282;28;19910;-60
2022/12/21 12:05:24;;;;;;;;;;;9.80;99.90;;;;;;5014602;28;20623;-65
2022/12/21 12:07:54;;;;;;;;;;;9.80;99.90;;;;;;5010806;28;19978;-65
2022/12/21 12:10:19;;;;;;;;;;;9.80;99.90;;;;;;5011976;28;19913;-64
2022/12/21 12:13:03;;;;;;;;;;;9.90;99.90;;;;;;4995943;28;20353;-63
2022/12/21 12:15:34;;;;;;;;;;;9.90;99.90;;;;;;5006907;28;20352;-64
2022/12/21 12:18:04;;;;;;;;;;;9.90;99.90;;;;;;5006399;28;19917;-64
2022/12/21 12:20:46;;;;;;;;;;;9.90;99.90;;;;;;5004284;28;20004;-64
2022/12/21 12:23:30;;;;;;;;;;;10.00;99.90;;;;;;5006112;28;20120;-64
2022/12/21 12:25:56;;;;;;;;;;;10.00;99.90;;;;;;5012522;28;19917;-63
2022/12/21 12:28:40;;;;;;;;;;;10.00;99.90;;;;;;5012386;28;19940;-63
2022/12/21 12:31:08;;;;;;;;;;;10.00;99.90;;;;;;5025969;28;19921;-65
2022/12/21 12:33:40;;;;;;;;;;;10.00;99.90;;;;;;5001158;28;19913;-63
2022/12/21 12:36:12;;;;;;;;;;;9.90;99.90;;;;;;5008932;28;20371;-64
2022/12/21 12:38:47;;;;;;;;;;;10.00;99.90;;;;;;5003853;28;19935;-64
2022/12/21 12:41:19;;;;;;;;;;;9.90;99.90;;;;;;5007605;28;19922;-63
2022/12/21 12:43:44;;;;;;;;;;;9.90;99.90;;;;;;5009144;28;19944;-63
2022/12/21 12:46:10;;;;;;;;;;;9.90;99.90;;;;;;5000602;28;19968;-64
2022/12/21 12:49:05;;;;;;;;;;;10.00;99.90;;;;;;5006810;28;19914;-62
2022/12/21 12:51:46;;;;;;;;;;;9.90;99.90;;;;;;4948117;28;20137;-62
2022/12/21 12:54:11;;;;;;;;;;;9.90;99.90;;;;;;4998232;28;19967;-63
2022/12/21 12:56:47;;;;;;;;;;;10.00;99.90;;;;;;5000917;28;19909;-64
2022/12/21 12:59:31;;;;;;;;;;;9.90;99.90;;;;;;5012678;28;19991;-62
2022/12/21 13:02:03;;;;;;;;;;;10.00;99.90;;;;;;5017319;28;19913;-63
2022/12/21 13:04:47;;;;;;;;;;;10.00;99.90;;;;;;5012940;28;19921;-62
2022/12/21 13:07:12;;;;;;;;;;;9.80;99.90;;;;;;5018054;28;20008;-64
2022/12/21 13:09:50;;;;;;;;;;;9.80;99.90;;;;;;5009841;28;19993;-64
2022/12/21 13:12:16;;;;;;;;;;;9.90;99.90;;;;;;5010571;28;20132;-63
2022/12/21 13:14:44;;;;;;;;;;;9.90;99.90;;;;;;5013013;28;20012;-62
2022/12/21 13:17:16;;;;;;;;;;;9.90;99.90;;;;;;5010930;28;20002;-63
2022/12/21 13:19:44;;;;;;;;;;;9.80;99.90;;;;;;5008507;28;19925;-63
2022/12/21 13:22:11;;;;;;;;;;;9.90;99.90;;;;;;5009621;28;19918;-64
2022/12/21 13:24:41;;;;;;;;;;;9.90;99.90;;;;;;5008141;28;19918;-65
2022/12/21 13:27:09;;;;;;;;;;;9.90;99.90;;;;;;5004042;28;19924;-64
2022/12/21 13:29:44;;;;;;;;;;;9.90;99.90;;;;;;5013837;28;19917;-66
2022/12/21 13:32:13;;;;;;;;;;;9.90;99.90;;;;;;5003806;28;20019;-63
2022/12/21 13:34:57;;;;;;;;;;;9.90;99.90;;;;;;5008254;28;20571;-63
2022/12/21 13:37:23;;;;;;;;;;;9.90;99.90;;;;;;5004106;28;19917;-65
2022/12/21 13:39:59;;;;;;;;;;;9.90;99.90;;;;;;5002719;28;19913;-66
2022/12/21 13:42:46;;;;;;;;;;;10.00;99.90;;;;;;5006758;28;19952;-65
2022/12/21 13:45:18;;;;;;;;;;;9.90;99.90;;;;;;4996738;28;19928;-64
2022/12/21 13:47:45;;;;;;;;;;;9.90;99.90;;;;;;4999559;28;19910;-64
2022/12/21 13:50:22;;;;;;;;;;;9.90;99.90;;;;;;5006342;28;19914;-64
2022/12/21 13:52:48;;;;;;;;;;;9.80;99.90;;;;;;5009679;28;19910;-64
2022/12/21 13:55:34;;;;;;;;;;;9.80;99.90;;;;;;5000304;28;20845;-64
2022/12/21 13:57:59;;;;;;;;;;;9.80;99.90;;;;;;5004923;28;20577;-65
2022/12/21 14:00:30;;;;;;;;;;;9.80;99.90;;;;;;5009239;28;19918;-64
2022/12/21 14:03:18;;;;;;;;;;;9.80;99.90;;;;;;5011173;28;19916;-64
2022/12/21 14:05:52;;;;;;;;;;;9.70;99.90;;;;;;5018206;28;20300;-65
2022/12/21 14:08:24;;;;;;;;;;;9.70;99.90;;;;;;5015033;28;20000;-65
2022/12/21 14:11:10;;;;;;;;;;;9.60;99.90;;;;;;5010108;28;20402;-65
2022/12/21 14:13:53;;;;;;;;;;;9.60;99.90;;;;;;4989906;28;19913;-64
2022/12/21 14:16:23;;;;;;;;;;;9.60;99.90;;;;;;5009150;28;20012;-62
2022/12/21 14:18:53;;;;;;;;;;;9.60;99.90;;;;;;5016006;28;19953;-63
2022/12/21 14:21:23;;;;;;;;;;;9.60;99.90;;;;;;5003641;28;19917;-60
2022/12/21 14:23:50;;;;;;;;;;;9.60;99.90;;;;;;5012284;28;20452;-63
2022/12/21 14:26:33;;;;;;;;;;;9.60;99.90;;;;;;5006212;28;19925;-63
2022/12/21 14:29:03;;;;;;;;;;;9.70;99.90;;;;;;5011708;28;19920;-64
2022/12/21 14:31:30;;;;;;;;;;;9.70;99.90;;;;;;5011475;28;20062;-64
2022/12/21 14:33:58;;;;;;;;;;;9.60;99.90;;;;;;5007999;28;19913;-66
2022/12/21 14:36:23;;;;;;;;;;;9.60;99.90;;;;;;5006767;28;19973;-64
2022/12/21 14:39:01;;;;;;;;;;;9.70;99.90;;;;;;5011334;28;19918;-64
2022/12/21 14:41:30;;;;;;;;;;;9.70;99.90;;;;;;5009647;28;19919;-64
2022/12/21 14:44:14;;;;;;;;;;;9.70;99.90;;;;;;5007905;28;20413;-65
2022/12/21 14:47:00;;;;;;;;;;;9.70;99.90;;;;;;5011572;28;19924;-63
2022/12/21 14:49:46;;;;;;;;;;;9.80;99.90;;;;;;5012177;28;19999;-63
2022/12/21 14:52:17;;;;;;;;;;;9.80;99.90;;;;;;5007922;28;19914;-64
2022/12/21 14:54:46;;;;;;;;;;;9.70;99.90;;;;;;5012631;28;19913;-64